Portada
METAR-TAF:

METAR-TAF

Aeropuertos :

Jark, Irán

latitud: 29-15-34N, longitud: 50-19-24E, altitud: 5 m

Observación

El informe se hizo hace 49 minutos, a las 11:00 UTC
Viento 8 kt del suroeste
Temperatura 20°C
Humedad 88%
Presión 1010 hPa
Visibilidad 10 km o más
Nubes dispersas a una altura de 3500 ft
Cielo cubierto a una altura de 9000 ft

METAR: OIBQ 201100Z 22008KT 9999 SCT035 OVC090 20/18 Q1010

Hora: 15:19 (11:49 UTC)


TAF: falta

Observaciones y pronósticos meteorológicos de más de 4000 aeropuertos (mensajes METAR y TAF).

Los puntos amarillos y rojos representan las estaciones disponibles.

Ponga el ratón en el punto deseado para ver el nombre de la estación.

Haga clic para ver las observaciones y los pronósticos meteorológicos.

Para cambiar el mapa : haga clic en los botones verdes con una cruz de color negro para hacer un zoom, en el botón verde con un guión para alejar o en las flechas verdes para mapas adyacentes.


METAR-TAF: